createdAt,value
2018-05-01T00:01:24.998Z,67.50
2018-05-01T00:03:52.563Z,67.40
2018-05-01T00:06:20.058Z,67.20
2018-05-01T00:08:47.575Z,67.10
2018-05-01T00:11:15.110Z,66.50
2018-05-01T00:13:42.788Z,65.90
2018-05-01T00:16:10.297Z,65.00
2018-05-01T00:18:37.837Z,65.30
2018-05-01T00:21:05.433Z,64.40
2018-05-01T00:23:32.947Z,64.70
2018-05-01T00:26:02.744Z,64.60
2018-05-01T00:28:30.251Z,64.50
2018-05-01T00:30:57.838Z,64.50
2018-05-01T00:33:25.327Z,65.60
2018-05-01T00:35:52.890Z,66.00
2018-05-01T00:38:20.413Z,64.60
2018-05-01T00:40:47.972Z,64.60
2018-05-01T00:43:15.505Z,65.10
2018-05-01T00:45:43.097Z,65.00
2018-05-01T00:48:11.394Z,65.30
2018-05-01T00:50:39.063Z,65.70
2018-05-01T00:53:06.567Z,66.00
2018-05-01T00:55:34.063Z,65.90
2018-05-01T00:58:01.644Z,65.80
2018-05-01T01:00:29.207Z,65.50
2018-05-01T01:02:56.843Z,65.60
2018-05-01T01:05:24.367Z,65.10
2018-05-01T01:07:52.630Z,64.40
2018-05-01T01:10:20.163Z,64.10
2018-05-01T01:12:47.683Z,64.10
2018-05-01T01:15:15.957Z,63.10
2018-05-01T01:17:43.512Z,62.30
2018-05-01T01:20:11.029Z,62.20
2018-05-01T01:22:39.319Z,61.20
2018-05-01T01:25:06.973Z,61.20
2018-05-01T01:27:34.491Z,60.80
2018-05-01T01:30:02.004Z,61.40
2018-05-01T01:32:29.503Z,60.90
2018-05-01T01:34:57.465Z,60.10
2018-05-01T01:37:24.497Z,60.70
2018-05-01T01:39:51.697Z,60.20
2018-05-01T01:42:18.719Z,60.00
2018-05-01T01:44:45.782Z,58.80
2018-05-01T01:47:12.908Z,58.40
2018-05-01T01:49:39.964Z,58.40
2018-05-01T01:52:07.198Z,57.90
2018-05-01T01:54:34.264Z,57.40
2018-05-01T01:57:01.328Z,57.20
2018-05-01T01:59:28.360Z,56.60
2018-05-01T02:01:55.424Z,56.70
2018-05-01T02:04:22.528Z,56.10
2018-05-01T02:06:50.312Z,55.70
2018-05-01T02:09:17.364Z,55.20
2018-05-01T02:11:44.374Z,55.20
2018-05-01T02:14:13.555Z,54.70
2018-05-01T02:16:40.574Z,54.80
2018-05-01T02:19:07.638Z,54.60
2018-05-01T02:21:34.672Z,54.10
2018-05-01T02:24:01.702Z,53.90
2018-05-01T02:26:28.862Z,53.80
2018-05-01T02:28:56.014Z,53.70
2018-05-01T02:31:23.022Z,54.00
2018-05-01T02:33:50.059Z,53.90
2018-05-01T02:36:17.127Z,53.70
2018-05-01T02:38:44.240Z,53.90
2018-05-01T02:41:12.050Z,54.40
2018-05-01T02:43:39.137Z,54.10
2018-05-01T02:46:06.225Z,54.10
2018-05-01T02:48:33.754Z,54.10
2018-05-01T02:51:00.802Z,54.10
2018-05-01T02:53:27.822Z,55.10
2018-05-01T02:55:54.841Z,54.40
2018-05-01T02:58:21.847Z,54.40
2018-05-01T03:00:48.897Z,54.60
2018-05-01T03:03:15.971Z,54.60
2018-05-01T03:05:43.007Z,54.70
2018-05-01T03:08:10.069Z,54.70
2018-05-01T03:10:37.092Z,54.80
2018-05-01T03:13:04.131Z,54.80
2018-05-01T03:15:31.181Z,55.10
2018-05-01T03:17:58.436Z,55.30
2018-05-01T03:20:25.512Z,55.10
2018-05-01T03:22:52.525Z,55.20
2018-05-01T03:25:20.595Z,55.10
2018-05-01T03:27:47.577Z,55.00
2018-05-01T03:30:15.364Z,54.80
2018-05-01T03:32:42.384Z,54.90
2018-05-01T03:35:09.398Z,54.90
2018-05-01T03:37:36.601Z,54.70
2018-05-01T03:40:04.380Z,54.70
2018-05-01T03:42:31.433Z,54.60
2018-05-01T03:44:58.516Z,54.80
2018-05-01T03:47:27.044Z,54.70
2018-05-01T03:49:54.103Z,54.60
2018-05-01T03:52:21.566Z,54.90
2018-05-01T03:54:48.523Z,54.10
2018-05-01T03:57:15.529Z,54.40
2018-05-01T03:59:42.614Z,55.70
2018-05-01T04:02:10.462Z,53.90
2018-05-01T04:04:37.445Z,53.90
2018-05-01T04:07:04.511Z,54.10
2018-05-01T04:09:31.619Z,54.50
2018-05-01T04:11:58.660Z,53.80
2018-05-01T04:14:26.793Z,54.70
2018-05-01T04:16:53.795Z,54.10
2018-05-01T04:19:20.835Z,55.20
2018-05-01T04:21:47.905Z,53.50
2018-05-01T04:24:15.712Z,54.00
2018-05-01T04:26:43.495Z,52.70
2018-05-01T04:29:10.749Z,52.70
2018-05-01T04:31:37.841Z,52.40
2018-05-01T04:34:04.839Z,52.60
2018-05-01T04:36:31.858Z,52.60
2018-05-01T04:38:58.885Z,52.50
2018-05-01T04:41:25.970Z,52.60
2018-05-01T04:43:55.319Z,53.00
2018-05-01T04:46:22.427Z,52.50
2018-05-01T04:48:49.461Z,52.90
2018-05-01T04:51:16.517Z,52.60
2018-05-01T04:53:44.316Z,51.80
2018-05-01T04:56:11.627Z,51.70
2018-05-01T04:58:38.688Z,52.00
2018-05-01T05:01:05.735Z,51.30
2018-05-01T05:03:33.589Z,50.80
2018-05-01T05:06:00.839Z,50.80
2018-05-01T05:08:29.074Z,51.00
2018-05-01T05:10:56.178Z,50.50
2018-05-01T05:13:23.562Z,50.00
2018-05-01T05:15:50.586Z,50.70
2018-05-01T05:18:17.680Z,50.00
2018-05-01T05:20:44.729Z,49.90
2018-05-01T05:23:11.877Z,50.10
2018-05-01T05:25:38.891Z,50.50
2018-05-01T05:28:05.951Z,49.90
2018-05-01T05:30:33.009Z,49.00
2018-05-01T05:33:00.039Z,49.40
2018-05-01T05:35:27.067Z,48.70
2018-05-01T05:37:54.837Z,46.30
2018-05-01T05:40:22.630Z,45.80
2018-05-01T05:42:49.683Z,45.70
2018-05-01T05:45:16.738Z,41.40
2018-05-01T05:47:43.775Z,38.20
2018-05-01T05:50:10.788Z,35.90
2018-05-01T05:52:37.805Z,32.90
2018-05-01T05:55:04.922Z,30.20
2018-05-01T05:57:32.158Z,27.50
2018-05-01T05:59:59.358Z,27.10
2018-05-01T06:02:26.451Z,26.10
2018-05-01T06:04:53.516Z,26.50
2018-05-01T06:07:20.578Z,25.30
2018-05-01T06:09:47.719Z,25.40
2018-05-01T06:12:14.802Z,24.70
2018-05-01T06:14:41.888Z,24.80
2018-05-01T06:17:09.020Z,23.40
2018-05-01T06:19:36.051Z,22.70
2018-05-01T06:22:03.188Z,22.20
2018-05-01T06:24:30.295Z,21.30
2018-05-01T06:26:57.317Z,21.60
2018-05-01T06:29:26.037Z,20.90
2018-05-01T06:31:53.132Z,20.80
2018-05-01T06:34:20.140Z,20.50
2018-05-01T06:36:47.221Z,20.70
2018-05-01T06:39:14.200Z,20.20
2018-05-01T06:41:41.230Z,19.90
2018-05-01T06:44:08.276Z,19.70
2018-05-01T06:46:35.305Z,19.70
2018-05-01T06:49:02.354Z,20.30
2018-05-01T06:51:29.514Z,19.80
2018-05-01T06:53:56.559Z,20.00
2018-05-01T06:56:23.719Z,21.00
2018-05-01T06:58:50.791Z,22.30
2018-05-01T07:01:18.564Z,22.40
2018-05-01T07:03:46.380Z,23.70
2018-05-01T07:06:13.403Z,23.70
2018-05-01T07:08:40.414Z,23.20
2018-05-01T07:11:07.628Z,22.60
2018-05-01T07:13:35.078Z,23.20
2018-05-01T07:16:02.141Z,22.80
2018-05-01T07:18:29.440Z,24.20
2018-05-01T07:20:56.579Z,24.10
2018-05-01T07:23:24.406Z,24.50
2018-05-01T07:25:51.477Z,24.40
2018-05-01T07:28:18.799Z,26.20
2018-05-01T07:30:45.912Z,25.40
2018-05-01T07:33:13.520Z,25.20
2018-05-01T07:35:41.040Z,25.30
2018-05-01T07:38:08.073Z,26.20
2018-05-01T07:40:36.110Z,25.80
2018-05-01T07:43:03.268Z,25.90
2018-05-01T07:45:30.284Z,25.60
2018-05-01T07:47:57.327Z,25.50
2018-05-01T07:50:24.558Z,25.00
2018-05-01T07:52:52.458Z,26.50
2018-05-01T07:55:19.486Z,26.50
2018-05-01T07:57:46.564Z,25.60
2018-05-01T08:00:13.648Z,26.50
2018-05-01T08:02:41.336Z,27.00
2018-05-01T08:05:08.408Z,27.00
2018-05-01T08:07:35.428Z,28.00
2018-05-01T08:10:02.442Z,28.60
2018-05-01T08:12:30.296Z,28.20
2018-05-01T08:14:57.328Z,27.70
2018-05-01T08:17:24.834Z,27.10
2018-05-01T08:19:51.878Z,28.70
2018-05-01T08:22:19.723Z,28.00
2018-05-01T08:24:46.902Z,28.00
2018-05-01T08:27:13.951Z,29.10
2018-05-01T08:29:41.444Z,29.30
2018-05-01T08:32:08.495Z,29.70
2018-05-01T08:34:37.077Z,29.70
2018-05-01T08:37:04.134Z,29.70
2018-05-01T08:39:31.175Z,29.50
2018-05-01T08:41:58.220Z,29.00
2018-05-01T08:44:25.322Z,29.20
2018-05-01T08:46:52.392Z,29.30
2018-05-01T08:49:20.199Z,30.30
2018-05-01T08:51:47.662Z,30.30
2018-05-01T08:54:14.755Z,29.10
2018-05-01T08:56:41.841Z,29.60
2018-05-01T08:59:09.124Z,29.90
2018-05-01T09:01:36.117Z,29.40
2018-05-01T09:04:04.026Z,30.60
2018-05-01T09:06:31.322Z,30.50
2018-05-01T09:08:58.383Z,30.60
2018-05-01T09:11:26.080Z,31.70
2018-05-01T09:13:53.365Z,31.60
2018-05-01T09:16:21.199Z,31.90
2018-05-01T09:18:48.316Z,31.90
2018-05-01T09:21:16.244Z,32.30
2018-05-01T09:23:43.474Z,32.30
2018-05-01T09:26:10.631Z,31.90
2018-05-01T09:28:37.866Z,32.60
2018-05-01T09:31:05.906Z,31.90
2018-05-01T09:33:32.999Z,32.20
2018-05-01T09:36:00.033Z,33.60
2018-05-01T09:38:27.085Z,32.50
2018-05-01T09:40:54.101Z,33.90
2018-05-01T09:43:21.336Z,32.50
2018-05-01T09:45:48.376Z,33.90
2018-05-01T09:48:15.705Z,33.00
2018-05-01T09:50:42.779Z,34.20
2018-05-01T09:53:10.341Z,33.90
2018-05-01T09:55:37.920Z,35.50
2018-05-01T09:58:05.491Z,35.40
2018-05-01T10:00:33.102Z,34.40
2018-05-01T10:03:00.624Z,34.10
2018-05-01T10:05:28.145Z,34.80
2018-05-01T10:07:56.508Z,34.30
2018-05-01T10:10:24.075Z,34.30
2018-05-01T10:12:51.658Z,34.20
2018-05-01T10:15:19.209Z,34.60
2018-05-01T10:17:46.804Z,35.60
2018-05-01T10:20:14.364Z,34.50
2018-05-01T10:22:41.856Z,36.50
2018-05-01T10:25:09.364Z,36.50
2018-05-01T10:27:37.024Z,35.00
2018-05-01T10:30:05.330Z,36.40
2018-05-01T10:32:32.975Z,36.20
2018-05-01T10:35:00.611Z,36.40
2018-05-01T10:37:28.269Z,35.40
2018-05-01T10:39:55.762Z,36.30
2018-05-01T10:42:23.289Z,35.30
2018-05-01T10:44:50.929Z,37.30
2018-05-01T10:47:18.453Z,38.10
2018-05-01T10:49:46.007Z,36.40
2018-05-01T10:52:13.578Z,35.50
2018-05-01T10:54:41.315Z,34.90
2018-05-01T10:57:08.890Z,37.00
2018-05-01T10:59:36.547Z,39.50
2018-05-01T11:02:05.005Z,35.90
2018-05-01T11:04:34.559Z,35.60
2018-05-01T11:07:02.234Z,35.50
2018-05-01T11:09:29.811Z,34.50
2018-05-01T11:11:57.545Z,35.60
2018-05-01T11:14:25.300Z,35.60
2018-05-01T11:16:52.846Z,35.00
2018-05-01T11:19:21.152Z,37.20
2018-05-01T11:21:48.777Z,37.20
2018-05-01T11:24:17.091Z,35.50
2018-05-01T11:26:44.628Z,34.10
2018-05-01T11:29:12.336Z,35.40
2018-05-01T11:31:39.868Z,35.60
2018-05-01T11:34:07.504Z,36.10
2018-05-01T11:36:35.794Z,35.30
2018-05-01T11:39:03.446Z,35.30
2018-05-01T11:41:31.171Z,34.70
2018-05-01T11:43:58.799Z,34.50
2018-05-01T11:46:26.369Z,35.20
2018-05-01T11:48:53.858Z,34.10
2018-05-01T11:51:21.679Z,33.70
2018-05-01T11:53:49.539Z,33.10
2018-05-01T11:56:17.090Z,33.90
2018-05-01T11:58:44.714Z,34.40
2018-05-01T12:01:13.963Z,33.10
2018-05-01T12:03:41.491Z,33.20
2018-05-01T12:06:09.788Z,37.10
2018-05-01T12:08:38.077Z,34.50
2018-05-01T12:11:05.606Z,34.40
2018-05-01T12:13:33.915Z,33.90
2018-05-01T12:16:01.820Z,33.90
2018-05-01T12:18:29.454Z,33.00
2018-05-01T12:20:56.989Z,32.40
2018-05-01T12:23:24.530Z,33.00
2018-05-01T12:25:52.107Z,33.90
2018-05-01T12:28:19.893Z,33.90
2018-05-01T12:30:47.461Z,33.20
2018-05-01T12:33:15.010Z,34.10
2018-05-01T12:35:42.601Z,33.50
2018-05-01T12:38:10.486Z,33.80
2018-05-01T12:40:38.187Z,36.30
2018-05-01T12:43:05.697Z,32.50
2018-05-01T12:45:34.215Z,32.90
2018-05-01T12:48:01.807Z,34.40
2018-05-01T12:50:29.337Z,33.70
2018-05-01T12:52:57.648Z,35.00
2018-05-01T12:55:25.185Z,34.30
2018-05-01T12:57:54.165Z,36.10
2018-05-01T13:00:22.496Z,35.10
2018-05-01T13:02:50.178Z,35.10
2018-05-01T13:05:17.823Z,34.50
2018-05-01T13:07:46.026Z,35.10
2018-05-01T13:10:13.593Z,34.70
2018-05-01T13:12:41.924Z,35.80
2018-05-01T13:15:09.695Z,35.90
2018-05-01T13:17:37.252Z,36.30
2018-05-01T13:20:04.772Z,35.50
2018-05-01T13:22:33.083Z,35.60
2018-05-01T13:25:00.910Z,35.50
2018-05-01T13:27:28.526Z,35.10
2018-05-01T13:29:56.026Z,35.50
2018-05-01T13:32:23.607Z,35.30
2018-05-01T13:34:51.668Z,36.90
2018-05-01T13:37:20.030Z,38.30
2018-05-01T13:39:47.650Z,38.10
2018-05-01T13:42:15.794Z,35.40
2018-05-01T13:44:43.467Z,35.90
2018-05-01T13:47:11.051Z,36.30
2018-05-01T13:49:38.592Z,36.40
2018-05-01T13:52:06.164Z,37.30
2018-05-01T13:54:33.761Z,35.20
2018-05-01T13:57:02.287Z,35.00
2018-05-01T13:59:30.595Z,35.50
2018-05-01T14:01:58.196Z,35.20
2018-05-01T14:04:25.809Z,37.40
2018-05-01T14:06:53.352Z,36.40
2018-05-01T14:09:20.991Z,35.60
2018-05-01T14:11:49.283Z,37.00
2018-05-01T14:14:16.911Z,37.00
2018-05-01T14:16:44.473Z,37.80
2018-05-01T14:19:12.198Z,36.30
2018-05-01T14:21:50.566Z,36.10
2018-05-01T14:24:18.105Z,38.30
2018-05-01T14:26:45.907Z,37.40
2018-05-01T14:29:13.537Z,36.30
2018-05-01T14:31:41.709Z,36.20
2018-05-01T14:34:10.122Z,36.30
2018-05-01T14:36:37.778Z,38.60
2018-05-01T14:39:06.091Z,36.60
2018-05-01T14:41:33.891Z,36.60
2018-05-01T14:44:01.689Z,35.70
2018-05-01T14:46:29.277Z,36.20
2018-05-01T14:48:56.910Z,37.70
2018-05-01T14:51:25.223Z,35.50
2018-05-01T14:53:52.791Z,35.40
2018-05-01T14:56:20.320Z,35.30
2018-05-01T14:58:47.941Z,35.60
2018-05-01T15:01:15.487Z,36.20
2018-05-01T15:03:43.104Z,34.80
2018-05-01T15:06:10.640Z,34.40
2018-05-01T15:08:38.956Z,33.70
2018-05-01T15:11:06.481Z,33.70
2018-05-01T15:13:35.128Z,35.70
2018-05-01T15:16:03.441Z,35.60
2018-05-01T15:18:31.007Z,35.40
2018-05-01T15:20:58.553Z,34.40
2018-05-01T15:23:26.835Z,36.50
2018-05-01T15:25:55.374Z,36.50
2018-05-01T15:28:22.944Z,35.30
2018-05-01T15:30:50.634Z,35.10
2018-05-01T15:33:18.431Z,36.00
2018-05-01T15:35:49.836Z,35.70
2018-05-01T15:38:17.559Z,35.80
2018-05-01T15:40:45.126Z,33.90
2018-05-01T15:43:13.001Z,34.00
2018-05-01T15:45:41.094Z,33.60
2018-05-01T15:48:08.662Z,34.20
2018-05-01T15:50:36.203Z,34.40
2018-05-01T15:53:03.834Z,34.50
2018-05-01T15:55:31.869Z,34.40
2018-05-01T15:57:59.510Z,34.00
2018-05-01T16:00:27.238Z,34.80
2018-05-01T16:02:54.818Z,34.40
2018-05-01T16:05:22.573Z,35.80
2018-05-01T16:07:50.117Z,35.70
2018-05-01T16:10:17.691Z,35.50
2018-05-01T16:12:45.326Z,35.80
2018-05-01T16:15:13.056Z,36.30
2018-05-01T16:17:40.577Z,36.40
2018-05-01T16:20:08.441Z,36.70
2018-05-01T16:22:36.018Z,36.60
2018-05-01T16:25:03.818Z,37.90
2018-05-01T16:27:31.730Z,37.10
2018-05-01T16:29:59.327Z,36.70
2018-05-01T16:32:27.047Z,36.70
2018-05-01T16:34:54.552Z,37.60
2018-05-01T16:37:22.093Z,36.70
2018-05-01T16:39:50.047Z,37.50
2018-05-01T16:42:17.575Z,37.10
2018-05-01T16:44:45.935Z,37.80
2018-05-01T16:47:13.536Z,37.80
2018-05-01T16:49:41.118Z,38.60
2018-05-01T16:52:08.745Z,39.00
2018-05-01T16:54:37.604Z,39.00
2018-05-01T16:57:05.222Z,38.90
2018-05-01T16:59:35.234Z,39.00
2018-05-01T17:02:04.389Z,39.10
2018-05-01T17:04:33.252Z,39.10
2018-05-01T17:07:01.218Z,39.10
2018-05-01T17:09:29.048Z,39.30
2018-05-01T17:11:57.286Z,38.90
2018-05-01T17:14:24.836Z,38.40
2018-05-01T17:16:54.738Z,38.90
2018-05-01T17:19:22.680Z,39.00
2018-05-01T17:21:50.299Z,38.60
2018-05-01T17:24:18.643Z,38.60
2018-05-01T17:26:46.581Z,38.60
2018-05-01T17:29:15.360Z,36.90
2018-05-01T17:31:43.433Z,38.30
2018-05-01T17:34:11.001Z,38.00
2018-05-01T17:36:38.769Z,36.80
2018-05-01T17:39:06.805Z,37.70
2018-05-01T17:41:35.443Z,37.60
2018-05-01T17:44:03.161Z,37.60
2018-05-01T17:46:31.703Z,37.60
2018-05-01T17:48:59.273Z,39.20
2018-05-01T17:51:26.846Z,38.40
2018-05-01T17:53:55.472Z,39.60
2018-05-01T17:56:23.356Z,39.50
2018-05-01T17:58:51.133Z,38.00
2018-05-01T18:01:18.743Z,38.50
2018-05-01T18:03:46.462Z,39.20
2018-05-01T18:06:13.997Z,39.10
2018-05-01T18:08:41.997Z,39.90
2018-05-01T18:11:12.436Z,39.90
2018-05-01T18:13:41.199Z,40.20
2018-05-01T18:16:08.760Z,40.20
2018-05-01T18:18:36.454Z,40.30
2018-05-01T18:21:05.214Z,41.60
2018-05-01T18:23:32.959Z,40.70
2018-05-01T18:26:00.571Z,41.30
2018-05-01T18:28:28.863Z,40.90
2018-05-01T18:30:56.400Z,41.20
2018-05-01T18:33:23.950Z,41.70
2018-05-01T18:35:51.537Z,41.60
2018-05-01T18:38:19.959Z,41.60
2018-05-01T18:40:47.508Z,41.90
2018-05-01T18:43:15.012Z,42.10
2018-05-01T18:45:42.650Z,42.50
2018-05-01T18:48:10.302Z,42.90
2018-05-01T18:50:40.395Z,43.30
2018-05-01T18:53:05.447Z,43.40
2018-05-01T18:55:32.964Z,43.60
2018-05-01T18:58:00.543Z,43.60
2018-05-01T19:00:28.122Z,44.00
2018-05-01T19:02:56.569Z,44.30
2018-05-01T19:05:24.368Z,44.80
2018-05-01T19:07:52.231Z,44.60
2018-05-01T19:10:20.824Z,44.90
2018-05-01T19:12:48.436Z,45.20
2018-05-01T19:15:17.262Z,45.20
2018-05-01T19:17:45.053Z,45.50
2018-05-01T19:20:12.612Z,45.90
2018-05-01T19:22:41.088Z,46.50
2018-05-01T19:25:08.731Z,46.50
2018-05-01T19:27:36.328Z,47.30
2018-05-01T19:30:05.305Z,46.80
2018-05-01T19:32:33.153Z,46.80
2018-05-01T19:35:01.420Z,47.30
2018-05-01T19:37:30.066Z,47.40
2018-05-01T19:39:58.174Z,47.80
2018-05-01T19:42:26.394Z,48.20
2018-05-01T19:44:54.009Z,47.90
2018-05-01T19:47:21.861Z,47.80
2018-05-01T19:49:49.453Z,47.90
2018-05-01T19:52:17.811Z,47.80
2018-05-01T19:54:45.392Z,48.20
2018-05-01T19:57:13.546Z,48.40
2018-05-01T19:59:41.571Z,48.20
2018-05-01T20:02:10.615Z,48.80
2018-05-01T20:04:38.286Z,48.80
2018-05-01T20:07:05.924Z,49.20
2018-05-01T20:09:37.834Z,49.40
2018-05-01T20:12:06.173Z,49.40
2018-05-01T20:14:33.760Z,49.40
2018-05-01T20:17:01.295Z,49.80
2018-05-01T20:19:29.461Z,50.10
2018-05-01T20:21:57.650Z,50.30
2018-05-01T20:24:25.265Z,50.70
2018-05-01T20:26:53.805Z,50.60
2018-05-01T20:29:21.383Z,51.30
2018-05-01T20:31:49.795Z,51.30
2018-05-01T20:34:17.431Z,51.70
2018-05-01T20:36:45.686Z,52.20
2018-05-01T20:39:13.337Z,52.70
2018-05-01T20:41:40.949Z,53.50
2018-05-01T20:44:09.299Z,54.50
2018-05-01T20:46:38.179Z,54.50
2018-05-01T20:49:06.074Z,54.80
2018-05-01T20:51:33.822Z,55.20
2018-05-01T20:54:01.398Z,55.80
2018-05-01T20:56:29.853Z,54.50
2018-05-01T20:58:57.487Z,54.50
2018-05-01T21:01:24.967Z,54.50
2018-05-01T21:03:52.544Z,54.80
2018-05-01T21:06:20.126Z,54.10
2018-05-01T21:08:48.445Z,54.40
2018-05-01T21:11:16.118Z,54.40
2018-05-01T21:13:43.729Z,54.20
2018-05-01T21:16:11.331Z,54.70
2018-05-01T21:18:38.877Z,54.20
2018-05-01T21:21:06.656Z,54.70
2018-05-01T21:23:34.560Z,54.00
2018-05-01T21:28:36.629Z,53.50
2018-05-01T21:31:04.295Z,53.50
2018-05-01T21:33:31.929Z,53.40
2018-05-01T21:35:59.468Z,53.20
2018-05-01T21:38:27.155Z,52.70
2018-05-01T21:40:54.703Z,53.40
2018-05-01T21:43:22.302Z,52.60
2018-05-01T21:45:50.355Z,52.20
2018-05-01T21:48:17.856Z,52.40
2018-05-01T21:50:45.535Z,52.20
2018-05-01T21:53:13.842Z,52.90
2018-05-01T21:55:41.602Z,52.90
2018-05-01T21:58:09.117Z,53.00
2018-05-01T22:00:36.639Z,53.00
2018-05-01T22:03:04.701Z,53.50
2018-05-01T22:05:32.215Z,54.00
2018-05-01T22:07:59.768Z,54.20
2018-05-01T22:10:27.472Z,54.20
2018-05-01T22:12:55.007Z,54.40
2018-05-01T22:15:22.517Z,54.90
2018-05-01T22:17:50.043Z,55.60
2018-05-01T22:20:17.585Z,56.20
2018-05-01T22:22:45.115Z,56.90
2018-05-01T22:25:12.702Z,57.70
2018-05-01T22:27:41.008Z,58.20
2018-05-01T22:30:08.516Z,58.30
2018-05-01T22:32:36.372Z,58.20
2018-05-01T22:35:03.928Z,58.50
2018-05-01T22:37:31.452Z,59.00
2018-05-01T22:39:59.027Z,59.40
2018-05-01T22:42:26.576Z,59.50
2018-05-01T22:44:54.071Z,59.30
2018-05-01T22:47:22.283Z,60.20
2018-05-01T22:49:50.577Z,61.00
2018-05-01T22:52:18.711Z,60.80
2018-05-01T22:54:46.248Z,61.00
2018-05-01T22:57:13.740Z,62.10
2018-05-01T22:59:41.270Z,62.20
2018-05-01T23:02:09.172Z,62.70
2018-05-01T23:04:36.827Z,62.00
2018-05-01T23:07:04.400Z,63.80
2018-05-01T23:09:31.916Z,64.70
2018-05-01T23:11:59.610Z,65.20
2018-05-01T23:14:28.244Z,66.10
2018-05-01T23:16:56.012Z,66.00
2018-05-01T23:19:23.514Z,67.00
2018-05-01T23:21:51.318Z,67.50
2018-05-01T23:24:19.188Z,67.60
2018-05-01T23:26:46.739Z,68.10
2018-05-01T23:29:15.040Z,67.70
2018-05-01T23:31:42.547Z,67.60
2018-05-01T23:34:10.092Z,68.80
2018-05-01T23:36:37.652Z,68.80
2018-05-01T23:39:05.158Z,69.30
2018-05-01T23:41:32.648Z,69.80
2018-05-01T23:44:00.138Z,70.30
2018-05-01T23:46:27.720Z,71.10
2018-05-01T23:48:56.057Z,72.60
2018-05-01T23:51:23.646Z,72.50
2018-05-01T23:53:51.492Z,73.20
2018-05-01T23:56:18.995Z,74.00
2018-05-01T23:58:47.320Z,74.70
